createdAt,value
2023-05-05T00:01:34.179Z,3.47
2023-05-05T00:04:01.659Z,3.78
2023-05-05T00:06:29.022Z,3.20
2023-05-05T00:08:56.309Z,2.75
2023-05-05T00:11:23.783Z,3.85
2023-05-05T00:13:51.466Z,3.08
2023-05-05T00:16:18.708Z,2.83
2023-05-05T00:18:46.144Z,2.83
2023-05-05T00:21:13.353Z,2.65
2023-05-05T00:23:40.467Z,2.87
2023-05-05T00:26:07.868Z,3.30
2023-05-05T00:28:35.072Z,2.87
2023-05-05T00:31:02.306Z,3.10
2023-05-05T00:33:29.857Z,3.00
2023-05-05T00:35:57.023Z,3.50
2023-05-05T00:38:24.092Z,2.92
2023-05-05T00:40:51.502Z,3.15
2023-05-05T00:43:18.677Z,3.12
2023-05-05T00:45:47.914Z,3.28
2023-05-05T00:48:17.005Z,3.60
2023-05-05T00:50:45.078Z,2.97
2023-05-05T00:53:12.270Z,3.22
2023-05-05T00:55:40.443Z,3.08
2023-05-05T00:58:07.950Z,3.00
2023-05-05T01:00:35.157Z,2.85
2023-05-05T01:03:03.217Z,3.05
2023-05-05T01:05:41.648Z,2.75
2023-05-05T01:08:44.395Z,2.67
2023-05-05T01:11:37.687Z,3.20
2023-05-05T01:14:24.719Z,3.42
2023-05-05T01:16:58.407Z,2.87
2023-05-05T01:19:59.512Z,3.03
2023-05-05T01:22:36.928Z,3.15
2023-05-05T01:25:27.134Z,3.12
2023-05-05T01:28:13.066Z,3.15
2023-05-05T01:31:25.945Z,3.25
2023-05-05T01:34:01.845Z,3.65
2023-05-05T01:36:34.828Z,3.20
2023-05-05T01:39:03.088Z,3.72
2023-05-05T01:41:47.032Z,3.12
2023-05-05T01:44:16.251Z,3.35
2023-05-05T01:46:43.607Z,3.47
2023-05-05T01:49:11.220Z,3.80
2023-05-05T01:51:39.215Z,3.53
2023-05-05T01:54:10.652Z,3.08
2023-05-05T01:56:39.169Z,3.47
2023-05-05T01:59:07.159Z,3.50
2023-05-05T02:01:37.473Z,4.95
2023-05-05T02:04:06.359Z,4.40
2023-05-05T02:06:33.995Z,4.20
2023-05-05T02:09:02.563Z,4.85
2023-05-05T02:11:30.155Z,4.25
2023-05-05T02:13:57.986Z,4.03
2023-05-05T02:16:25.566Z,3.65
2023-05-05T02:18:54.399Z,3.42
2023-05-05T02:21:22.797Z,3.17
2023-05-05T02:23:51.945Z,3.58
2023-05-05T02:26:21.779Z,3.30
2023-05-05T02:29:07.259Z,3.55
2023-05-05T02:31:38.370Z,3.85
2023-05-05T02:34:07.560Z,3.90
2023-05-05T02:36:38.687Z,3.37
2023-05-05T02:39:18.273Z,4.07
2023-05-05T02:41:47.327Z,3.62
2023-05-05T02:44:17.028Z,3.97
2023-05-05T02:46:44.405Z,3.67
2023-05-05T02:49:12.391Z,3.45
2023-05-05T02:51:40.925Z,3.20
2023-05-05T02:54:10.035Z,3.22
2023-05-05T02:56:41.312Z,3.97
2023-05-05T02:59:22.274Z,3.03
2023-05-05T03:02:09.278Z,3.65
2023-05-05T03:04:43.155Z,3.97
2023-05-05T03:07:14.423Z,3.78
2023-05-05T03:09:54.061Z,4.07
2023-05-05T03:12:27.944Z,3.87
2023-05-05T03:14:58.282Z,3.58
2023-05-05T03:17:28.139Z,3.72
2023-05-05T03:19:55.725Z,3.67
2023-05-05T03:22:23.189Z,3.78
2023-05-05T03:24:51.632Z,3.45
2023-05-05T03:27:20.456Z,3.25
2023-05-05T03:29:47.893Z,3.60
2023-05-05T03:32:15.797Z,3.47
2023-05-05T03:34:43.355Z,3.22
2023-05-05T03:37:10.564Z,4.60
2023-05-05T03:39:38.715Z,4.00
2023-05-05T03:42:06.969Z,9.35
2023-05-05T03:44:35.222Z,7.07
2023-05-05T03:47:02.868Z,5.53
2023-05-05T03:49:30.741Z,3.75
2023-05-05T03:51:58.090Z,5.00
2023-05-05T03:54:25.679Z,4.35
2023-05-05T03:56:52.866Z,4.15
2023-05-05T03:59:20.085Z,3.95
2023-05-05T04:01:48.998Z,5.65
2023-05-05T04:04:17.309Z,3.95
2023-05-05T04:06:44.546Z,4.07
2023-05-05T04:09:13.772Z,3.42
2023-05-05T04:11:41.317Z,3.17
2023-05-05T04:14:10.127Z,3.58
2023-05-05T04:16:37.862Z,3.75
2023-05-05T04:19:05.444Z,3.70
2023-05-05T04:21:32.800Z,3.22
2023-05-05T04:24:00.048Z,2.97
2023-05-05T04:26:27.798Z,3.55
2023-05-05T04:28:55.819Z,3.75
2023-05-05T04:31:23.319Z,3.30
2023-05-05T04:33:51.378Z,5.60
2023-05-05T04:36:19.245Z,8.93
2023-05-05T04:38:47.044Z,4.45
2023-05-05T04:41:14.535Z,7.37
2023-05-05T04:43:42.138Z,4.43
2023-05-05T04:46:09.376Z,4.95
2023-05-05T04:48:37.958Z,5.57
2023-05-05T04:51:06.451Z,5.18
2023-05-05T04:53:33.911Z,6.07
2023-05-05T04:56:02.622Z,5.10
2023-05-05T04:58:29.896Z,9.00
2023-05-05T05:00:57.489Z,5.20
2023-05-05T05:03:25.325Z,14.80
2023-05-05T05:05:53.196Z,14.98
2023-05-05T05:08:20.459Z,16.90
2023-05-05T05:10:48.028Z,9.80
2023-05-05T05:13:15.377Z,5.35
2023-05-05T05:15:42.917Z,4.32
2023-05-05T05:18:10.444Z,4.30
2023-05-05T05:20:38.653Z,4.85
2023-05-05T05:23:05.914Z,4.45
2023-05-05T05:25:33.669Z,4.50
2023-05-05T05:28:08.733Z,3.83
2023-05-05T05:30:38.294Z,5.28
2023-05-05T05:33:06.191Z,4.10
2023-05-05T05:35:33.638Z,4.28
2023-05-05T05:38:01.326Z,4.37
2023-05-05T05:40:28.579Z,3.65
2023-05-05T05:42:56.174Z,3.40
2023-05-05T05:45:23.940Z,3.80
2023-05-05T05:47:51.233Z,4.12
2023-05-05T05:50:18.721Z,3.78
2023-05-05T05:52:46.337Z,4.93
2023-05-05T05:55:13.660Z,4.05
2023-05-05T05:57:41.390Z,3.75
2023-05-05T06:00:09.939Z,4.70
2023-05-05T06:02:39.042Z,3.33
2023-05-05T06:05:08.039Z,3.22
2023-05-05T06:07:35.457Z,2.53
2023-05-05T06:10:14.403Z,3.47
2023-05-05T06:12:46.610Z,3.55
2023-05-05T06:15:13.850Z,3.33
2023-05-05T06:17:41.177Z,3.75
2023-05-05T06:20:09.342Z,3.40
2023-05-05T06:22:36.618Z,4.37
2023-05-05T06:25:04.332Z,3.67
2023-05-05T06:27:31.892Z,3.62
2023-05-05T06:29:59.072Z,3.55
2023-05-05T06:32:26.295Z,4.22
2023-05-05T06:34:53.753Z,3.40
2023-05-05T06:37:20.906Z,3.72
2023-05-05T06:39:47.996Z,3.62
2023-05-05T06:42:15.458Z,3.25
2023-05-05T06:44:42.631Z,4.12
2023-05-05T06:47:09.832Z,2.80
2023-05-05T06:49:37.298Z,4.35
2023-05-05T06:52:04.638Z,2.70
2023-05-05T06:54:31.788Z,3.12
2023-05-05T06:56:59.807Z,3.35
2023-05-05T06:59:27.027Z,2.78
2023-05-05T07:01:54.266Z,3.17
2023-05-05T07:04:21.633Z,2.95
2023-05-05T07:06:48.750Z,2.87
2023-05-05T07:09:17.100Z,3.50
2023-05-05T07:11:46.379Z,3.50
2023-05-05T07:14:13.583Z,3.20
2023-05-05T07:16:40.973Z,3.35
2023-05-05T07:19:08.516Z,3.20
2023-05-05T07:21:35.835Z,2.83
2023-05-05T07:24:03.551Z,3.60
2023-05-05T07:26:31.269Z,2.95
2023-05-05T07:28:58.967Z,3.40
2023-05-05T07:31:26.621Z,3.55
2023-05-05T07:33:54.192Z,3.50
2023-05-05T07:36:21.374Z,3.15
2023-05-05T07:38:48.435Z,3.50
2023-05-05T07:41:16.146Z,3.17
2023-05-05T07:43:44.665Z,3.40
2023-05-05T07:46:12.267Z,4.62
2023-05-05T07:48:41.602Z,3.85
2023-05-05T07:51:09.790Z,3.67
2023-05-05T07:53:37.328Z,3.65
2023-05-05T07:56:04.805Z,4.85
2023-05-05T07:58:32.038Z,3.67
2023-05-05T08:00:59.483Z,3.50
2023-05-05T08:03:27.194Z,3.80
2023-05-05T08:05:55.537Z,3.80
2023-05-05T08:08:26.946Z,4.15
2023-05-05T08:10:54.554Z,4.12
2023-05-05T08:13:21.741Z,5.80
2023-05-05T08:15:48.967Z,3.92
2023-05-05T08:18:16.328Z,3.75
2023-05-05T08:20:43.444Z,3.33
2023-05-05T08:23:10.565Z,6.80
2023-05-05T08:25:37.996Z,5.10
2023-05-05T08:28:05.153Z,4.85
2023-05-05T08:30:34.851Z,4.53
2023-05-05T08:33:02.295Z,4.30
2023-05-05T08:35:29.439Z,4.68
2023-05-05T08:37:58.930Z,4.62
2023-05-05T08:40:30.456Z,5.10
2023-05-05T08:42:57.554Z,5.00
2023-05-05T08:45:24.783Z,4.57
2023-05-05T08:47:52.219Z,4.85
2023-05-05T08:50:19.779Z,5.00
2023-05-05T08:52:51.154Z,5.50
2023-05-05T08:55:26.889Z,4.25
2023-05-05T08:57:57.798Z,4.72
2023-05-05T09:00:27.173Z,4.85
2023-05-05T09:02:59.398Z,4.80
2023-05-05T09:05:27.176Z,4.65
2023-05-05T09:07:54.383Z,4.47
2023-05-05T09:10:21.616Z,4.25
2023-05-05T09:12:51.128Z,4.75
2023-05-05T09:15:18.637Z,5.03
2023-05-05T09:17:46.565Z,4.70
2023-05-05T09:20:14.838Z,4.87
2023-05-05T09:22:47.083Z,4.50
2023-05-05T09:25:16.408Z,4.22
2023-05-05T09:27:47.237Z,4.97
2023-05-05T09:30:23.982Z,5.53
2023-05-05T09:32:53.136Z,4.80
2023-05-05T09:35:21.973Z,3.67
2023-05-05T09:37:49.265Z,4.25
2023-05-05T09:40:18.271Z,3.97
2023-05-05T09:42:46.165Z,6.45
2023-05-05T09:45:19.609Z,5.25
2023-05-05T09:47:47.686Z,5.32
2023-05-05T09:50:18.552Z,5.32
2023-05-05T09:52:57.229Z,4.10
2023-05-05T09:55:25.485Z,5.57
2023-05-05T09:57:52.968Z,4.82
2023-05-05T10:00:20.691Z,5.47
2023-05-05T10:02:48.206Z,5.20
2023-05-05T10:05:17.142Z,3.90
2023-05-05T10:07:45.824Z,4.12
2023-05-05T10:10:15.216Z,4.43
2023-05-05T10:12:43.127Z,3.78
2023-05-05T10:15:11.692Z,6.50
2023-05-05T10:18:05.198Z,5.62
2023-05-05T10:23:02.793Z,4.62
2023-05-05T10:25:33.822Z,4.65
2023-05-05T10:28:06.445Z,4.15
2023-05-05T10:30:37.263Z,5.50
2023-05-05T10:33:30.167Z,4.47
2023-05-05T10:36:02.323Z,4.70
2023-05-05T10:38:33.921Z,5.62
2023-05-05T10:41:02.158Z,4.97
2023-05-05T10:43:30.791Z,4.70
2023-05-05T10:45:58.435Z,4.80
2023-05-05T10:48:35.058Z,4.93
2023-05-05T10:51:13.188Z,10.57
2023-05-05T10:53:46.717Z,4.62
2023-05-05T10:56:22.180Z,5.32
2023-05-05T10:58:59.263Z,10.73
2023-05-05T11:01:34.679Z,4.97
2023-05-05T11:04:21.983Z,3.83
2023-05-05T11:07:09.658Z,4.87
2023-05-05T11:09:57.464Z,4.93
2023-05-05T11:12:24.968Z,3.97
2023-05-05T11:15:26.487Z,3.87
2023-05-05T11:17:55.529Z,4.82
2023-05-05T11:20:43.675Z,3.55
2023-05-05T11:23:11.249Z,4.05
2023-05-05T11:25:40.537Z,4.03
2023-05-05T11:28:16.323Z,4.12
2023-05-05T11:30:59.405Z,4.80
2023-05-05T11:33:29.235Z,4.07
2023-05-05T11:36:01.828Z,3.87
2023-05-05T11:38:33.345Z,3.87
2023-05-05T11:41:08.089Z,4.47
2023-05-05T11:43:35.575Z,3.70
2023-05-05T11:46:13.559Z,5.28
2023-05-05T11:48:52.813Z,3.53
2023-05-05T11:51:20.337Z,4.80
2023-05-05T11:53:50.207Z,4.65
2023-05-05T11:56:19.667Z,3.47
2023-05-05T11:58:50.187Z,4.10
2023-05-05T12:01:17.469Z,4.75
2023-05-05T12:03:45.846Z,4.65
2023-05-05T12:06:13.451Z,3.50
2023-05-05T12:08:41.392Z,3.25
2023-05-05T12:11:10.683Z,3.45
2023-05-05T12:13:37.992Z,4.15
2023-05-05T12:16:12.827Z,3.95
2023-05-05T12:18:41.116Z,3.80
2023-05-05T12:21:20.868Z,3.58
2023-05-05T12:23:48.373Z,4.32
2023-05-05T12:26:29.241Z,4.00
2023-05-05T12:28:58.270Z,3.37
2023-05-05T12:31:39.059Z,3.70
2023-05-05T12:34:08.465Z,3.70
2023-05-05T12:36:36.301Z,5.35
2023-05-05T12:39:06.508Z,3.85
2023-05-05T12:41:34.399Z,3.60
2023-05-05T12:44:03.128Z,3.78
2023-05-05T12:46:31.869Z,4.03
2023-05-05T12:49:05.372Z,3.50
2023-05-05T12:51:33.402Z,3.90
2023-05-05T12:54:03.160Z,3.40
2023-05-05T12:56:33.449Z,3.45
2023-05-05T12:59:02.419Z,3.62
2023-05-05T13:01:30.224Z,3.55
2023-05-05T13:04:13.994Z,2.90
2023-05-05T13:09:23.091Z,3.47
2023-05-05T13:11:50.629Z,3.20
2023-05-05T13:14:17.790Z,3.33
2023-05-05T13:16:44.977Z,4.03
2023-05-05T13:19:12.521Z,3.67
2023-05-05T13:21:39.669Z,3.20
2023-05-05T13:24:19.788Z,3.55
2023-05-05T13:26:53.499Z,3.70
2023-05-05T13:29:20.692Z,3.05
2023-05-05T13:31:47.890Z,3.75
2023-05-05T13:34:15.488Z,3.47
2023-05-05T13:36:42.675Z,3.22
2023-05-05T13:39:09.932Z,3.17
2023-05-05T13:41:37.390Z,3.17
2023-05-05T13:44:04.713Z,2.90
2023-05-05T13:46:31.942Z,2.90
2023-05-05T13:48:59.443Z,3.22
2023-05-05T13:51:26.693Z,3.40
2023-05-05T13:53:53.960Z,3.35
2023-05-05T13:56:23.483Z,3.20
2023-05-05T13:58:50.825Z,3.50
2023-05-05T14:01:18.077Z,3.03
2023-05-05T14:03:45.724Z,3.58
2023-05-05T14:06:12.909Z,5.97
2023-05-05T14:08:40.049Z,2.97
2023-05-05T14:11:07.475Z,2.70
2023-05-05T14:13:34.721Z,3.22
2023-05-05T14:16:02.125Z,2.70
2023-05-05T14:18:29.713Z,2.78
2023-05-05T14:20:56.934Z,3.33
2023-05-05T14:23:24.098Z,3.40
2023-05-05T14:25:51.541Z,2.30
2023-05-05T14:28:18.737Z,2.80
2023-05-05T14:30:46.379Z,2.53
2023-05-05T14:33:13.873Z,2.55
2023-05-05T14:35:41.170Z,3.25
2023-05-05T14:38:08.422Z,6.75
2023-05-05T14:40:35.919Z,2.62
2023-05-05T14:43:03.113Z,3.10
2023-05-05T14:45:30.285Z,18.70
2023-05-05T14:47:57.837Z,3.35
2023-05-05T14:50:24.969Z,3.20
2023-05-05T14:52:52.162Z,3.80
2023-05-05T14:55:19.692Z,5.55
2023-05-05T14:57:46.914Z,3.78
2023-05-05T15:00:14.547Z,3.08
2023-05-05T15:02:42.048Z,2.60
2023-05-05T15:05:10.478Z,3.10
2023-05-05T15:07:37.932Z,3.20
2023-05-05T15:10:06.363Z,3.20
2023-05-05T15:12:33.734Z,3.20
2023-05-05T15:15:00.927Z,2.85
2023-05-05T15:17:28.685Z,2.87
2023-05-05T15:19:55.883Z,3.50
2023-05-05T15:22:23.093Z,3.05
2023-05-05T15:24:50.629Z,2.97
2023-05-05T15:27:18.587Z,3.05
2023-05-05T15:29:46.253Z,2.90
2023-05-05T15:32:13.752Z,2.80
2023-05-05T15:34:40.950Z,2.78
2023-05-05T15:37:08.162Z,2.75
2023-05-05T15:39:35.670Z,2.70
2023-05-05T15:42:03.785Z,2.65
2023-05-05T15:44:31.695Z,2.40
2023-05-05T15:46:59.298Z,2.92
2023-05-05T15:49:26.623Z,2.78
2023-05-05T15:51:53.818Z,2.75
2023-05-05T15:54:21.401Z,6.10
2023-05-05T15:56:49.621Z,3.62
2023-05-05T15:59:16.833Z,3.17
2023-05-05T16:01:44.403Z,2.17
2023-05-05T16:04:12.101Z,3.37
2023-05-05T16:06:39.237Z,3.28
2023-05-05T16:09:06.337Z,3.20
2023-05-05T16:11:33.745Z,3.37
2023-05-05T16:14:00.852Z,2.67
2023-05-05T16:16:27.987Z,3.05
2023-05-05T16:18:55.430Z,4.12
2023-05-05T16:21:22.572Z,4.72
2023-05-05T16:23:49.699Z,3.92
2023-05-05T16:26:17.072Z,2.92
2023-05-05T16:28:44.134Z,3.40
2023-05-05T16:31:11.517Z,3.40
2023-05-05T16:33:40.934Z,4.15
2023-05-05T16:36:14.789Z,2.53
2023-05-05T16:38:42.183Z,3.15
2023-05-05T16:41:10.689Z,2.60
2023-05-05T16:43:37.844Z,3.67
2023-05-05T16:46:06.361Z,2.95
2023-05-05T16:48:33.495Z,3.10
2023-05-05T16:51:00.858Z,4.10
2023-05-05T16:53:28.247Z,3.70
2023-05-05T16:55:55.423Z,5.82
2023-05-05T16:58:22.936Z,4.68
2023-05-05T17:00:50.901Z,3.58
2023-05-05T17:03:19.253Z,4.32
2023-05-05T17:05:50.447Z,7.87
2023-05-05T17:08:17.940Z,10.65
2023-05-05T17:10:46.233Z,13.25
2023-05-05T17:13:14.453Z,42.95
2023-05-05T17:15:50.185Z,21.27
2023-05-05T17:18:20.153Z,10.85
2023-05-05T17:20:49.105Z,14.68
2023-05-05T17:23:16.691Z,10.68
2023-05-05T17:25:43.932Z,9.38
2023-05-05T17:28:11.432Z,9.25
2023-05-05T17:30:38.498Z,5.62
2023-05-05T17:33:05.782Z,8.23
2023-05-05T17:35:33.290Z,8.77
2023-05-05T17:38:00.476Z,8.23
2023-05-05T17:40:27.690Z,10.68
2023-05-05T17:42:55.103Z,9.50
2023-05-05T17:45:22.220Z,9.27
2023-05-05T17:47:49.338Z,6.10
2023-05-05T17:50:16.823Z,24.80
2023-05-05T17:52:45.074Z,21.20
2023-05-05T17:55:12.640Z,21.05
2023-05-05T17:57:40.290Z,18.80
2023-05-05T18:00:08.960Z,16.55
2023-05-05T18:02:39.816Z,23.30
2023-05-05T18:05:08.647Z,17.40
2023-05-05T18:07:35.957Z,17.08
2023-05-05T18:10:03.068Z,42.75
2023-05-05T18:12:30.535Z,43.60
2023-05-05T18:14:57.606Z,23.45
2023-05-05T18:17:24.747Z,30.42
2023-05-05T18:19:52.188Z,42.95
2023-05-05T18:22:19.417Z,19.50
2023-05-05T18:24:47.052Z,40.88
2023-05-05T18:27:14.437Z,28.15
2023-05-05T18:29:41.674Z,19.27
2023-05-05T18:32:10.138Z,14.93
2023-05-05T18:34:37.570Z,18.08
2023-05-05T18:37:04.649Z,27.40
2023-05-05T18:39:31.789Z,12.43
2023-05-05T18:41:59.380Z,11.15
2023-05-05T18:44:26.712Z,12.37
2023-05-05T18:46:53.901Z,7.85
2023-05-05T18:49:22.037Z,8.73
2023-05-05T18:51:49.152Z,6.55
2023-05-05T18:54:16.244Z,6.18
2023-05-05T18:56:43.620Z,5.68
2023-05-05T18:59:10.729Z,5.97
2023-05-05T19:01:37.823Z,10.15
2023-05-05T19:04:08.512Z,6.97
2023-05-05T19:06:40.028Z,7.75
2023-05-05T19:09:07.361Z,7.82
2023-05-05T19:11:34.476Z,7.87
2023-05-05T19:14:01.551Z,8.02
2023-05-05T19:16:30.127Z,10.40
2023-05-05T19:19:00.145Z,7.32
2023-05-05T19:21:27.742Z,8.40
2023-05-05T19:23:55.188Z,7.55
2023-05-05T19:26:24.382Z,6.12
2023-05-05T19:28:51.532Z,7.80
2023-05-05T19:31:18.978Z,6.03
2023-05-05T19:33:46.103Z,12.73
2023-05-05T19:36:13.255Z,16.98
2023-05-05T19:38:44.553Z,18.25
2023-05-05T19:41:12.312Z,8.43
2023-05-05T19:43:39.422Z,11.43
2023-05-05T19:46:06.864Z,17.17
2023-05-05T19:48:33.998Z,11.07
2023-05-05T19:51:01.126Z,8.82
2023-05-05T19:53:28.572Z,6.93
2023-05-05T19:55:55.840Z,6.28
2023-05-05T19:58:23.027Z,8.07
2023-05-05T20:00:50.497Z,22.02
2023-05-05T20:03:17.980Z,6.15
2023-05-05T20:05:45.163Z,6.10
2023-05-05T20:08:12.267Z,6.40
2023-05-05T20:10:39.627Z,6.00
2023-05-05T20:13:06.829Z,6.05
2023-05-05T20:15:34.051Z,5.28
2023-05-05T20:18:01.725Z,5.25
2023-05-05T20:20:28.990Z,10.30
2023-05-05T20:22:56.142Z,7.57
2023-05-05T20:25:23.676Z,11.43
2023-05-05T20:27:50.827Z,8.75
2023-05-05T20:30:18.104Z,6.57
2023-05-05T20:32:45.591Z,8.32
2023-05-05T20:35:13.067Z,6.28
2023-05-05T20:37:40.398Z,8.68
2023-05-05T20:40:08.714Z,8.65
2023-05-05T20:42:36.997Z,9.02
2023-05-05T20:45:04.982Z,5.20
2023-05-05T20:47:34.373Z,5.87
2023-05-05T20:50:01.585Z,10.48
2023-05-05T20:52:28.962Z,6.90
2023-05-05T20:54:56.408Z,6.80
2023-05-05T20:57:23.630Z,5.75
2023-05-05T20:59:50.775Z,5.57
2023-05-05T21:02:18.876Z,6.03
2023-05-05T21:04:46.151Z,6.15
2023-05-05T21:07:13.354Z,6.55
2023-05-05T21:09:40.933Z,6.80
2023-05-05T21:12:08.139Z,6.32
2023-05-05T21:14:35.866Z,7.25
2023-05-05T21:17:03.411Z,6.80
2023-05-05T21:19:30.676Z,6.57
2023-05-05T21:21:59.204Z,6.60
2023-05-05T21:24:28.026Z,7.10
2023-05-05T21:26:56.351Z,8.35
2023-05-05T21:29:24.770Z,8.07
2023-05-05T21:31:52.246Z,9.02
2023-05-05T21:34:20.174Z,7.82
2023-05-05T21:36:47.384Z,8.45
2023-05-05T21:39:14.878Z,7.65
2023-05-05T21:41:42.083Z,5.80
2023-05-05T21:44:09.263Z,6.93
2023-05-05T21:46:36.787Z,6.28
2023-05-05T21:49:20.255Z,7.85
2023-05-05T21:51:47.686Z,8.63
2023-05-05T21:54:14.854Z,9.07
2023-05-05T21:56:42.080Z,9.68
2023-05-05T21:59:09.539Z,8.95
2023-05-05T22:01:36.993Z,9.15
2023-05-05T22:04:04.731Z,7.05
2023-05-05T22:06:32.504Z,7.10
2023-05-05T22:08:59.788Z,6.43
2023-05-05T22:11:27.399Z,6.15
2023-05-05T22:13:54.493Z,6.43
2023-05-05T22:16:21.739Z,7.28
2023-05-05T22:18:49.689Z,7.45
2023-05-05T22:21:16.860Z,7.97
2023-05-05T22:23:44.040Z,7.53
2023-05-05T22:26:11.685Z,8.02
2023-05-05T22:28:38.859Z,8.43
2023-05-05T22:31:05.977Z,8.45
2023-05-05T22:33:33.407Z,9.25
2023-05-05T22:36:00.707Z,10.05
2023-05-05T22:38:27.797Z,9.35
2023-05-05T22:40:55.171Z,9.07
2023-05-05T22:43:22.282Z,9.02
2023-05-05T22:45:49.539Z,9.10
2023-05-05T22:48:16.965Z,10.77
2023-05-05T22:50:44.063Z,24.50
2023-05-05T22:53:11.174Z,14.77
2023-05-05T22:55:38.641Z,11.77
2023-05-05T22:58:06.336Z,10.07
2023-05-05T23:00:33.460Z,10.73
2023-05-05T23:03:00.965Z,10.25
2023-05-05T23:05:28.057Z,10.70
2023-05-05T23:07:55.171Z,9.63
2023-05-05T23:10:22.555Z,11.02
2023-05-05T23:12:49.682Z,10.32
2023-05-05T23:15:16.904Z,10.73
2023-05-05T23:17:44.354Z,11.10
2023-05-05T23:20:13.162Z,10.50
2023-05-05T23:22:40.337Z,11.63
2023-05-05T23:25:08.652Z,10.50
2023-05-05T23:27:35.947Z,11.02
2023-05-05T23:30:03.154Z,10.93
2023-05-05T23:32:30.775Z,11.20
2023-05-05T23:34:57.876Z,9.98
2023-05-05T23:37:25.593Z,10.32
2023-05-05T23:39:52.982Z,10.32
2023-05-05T23:42:20.086Z,10.70
2023-05-05T23:44:47.202Z,10.48
2023-05-05T23:47:14.629Z,10.20
2023-05-05T23:49:41.756Z,9.02
2023-05-05T23:52:09.478Z,9.25
2023-05-05T23:54:36.845Z,9.50
2023-05-05T23:57:04.010Z,8.88
2023-05-05T23:59:31.200Z,8.95
